Terminal Aerodrome Forecast
Issued by NWS

Home | Current Version | Previous Version | Text Only | Print | Product List | Glossary On
Versions: 1 2 3 4 5 6 7 8 9 10 11 12 13 14 15 16 17 18 19 20 21 22
000
FTPQ31 PGUM 202329
TAFGUM
TAF

TAF
PTYA 202329Z 2100/2124 08006KT 6SM -RA SCT016 BKN040 OVC100
      TEMPO 2100/2102 08010G20KT 4SM SHRA BKN016 BKN030
     FM210200 08013KT P6SM VCSH SCT016 SCT040 BKN130=

USA.gov is the U.S. government's official web portal to all federal, state and local government web resources and services.